sensor_id;sensor_type;location;lat;lon;timestamp;pressure;altitude;pressure_sealevel;temperature;humidity
34658;BME280;20865;43.312;27.152;2024-01-11T00:00:13;101722.27;;;3.30;34.12
34658;BME280;20865;43.312;27.152;2024-01-11T00:02:42;101728.50;;;3.32;34.10
34658;BME280;20865;43.312;27.152;2024-01-11T00:05:10;101723.65;;;3.32;34.17
34658;BME280;20865;43.312;27.152;2024-01-11T00:07:37;101731.58;;;3.32;34.19
34658;BME280;20865;43.312;27.152;2024-01-11T00:10:05;101721.89;;;3.32;34.11
34658;BME280;20865;43.312;27.152;2024-01-11T00:12:33;101723.73;;;3.37;33.99
34658;BME280;20865;43.312;27.152;2024-01-11T00:15:01;101721.09;;;3.37;33.93
34658;BME280;20865;43.312;27.152;2024-01-11T00:17:29;101720.30;;;3.41;33.89
34658;BME280;20865;43.312;27.152;2024-01-11T00:19:56;101719.91;;;3.43;33.88
34658;BME280;20865;43.312;27.152;2024-01-11T00:22:24;101712.83;;;3.42;33.71
34658;BME280;20865;43.312;27.152;2024-01-11T00:24:51;101714.22;;;3.45;33.77
34658;BME280;20865;43.312;27.152;2024-01-11T00:27:19;101718.98;;;3.41;33.53
34658;BME280;20865;43.312;27.152;2024-01-11T00:29:47;101708.83;;;3.39;33.61
34658;BME280;20865;43.312;27.152;2024-01-11T00:32:14;101710.55;;;3.38;33.65
34658;BME280;20865;43.312;27.152;2024-01-11T00:34:42;101711.39;;;3.36;33.74
34658;BME280;20865;43.312;27.152;2024-01-11T00:37:10;101714.48;;;3.37;33.83
34658;BME280;20865;43.312;27.152;2024-01-11T00:39:38;101708.31;;;3.36;33.85
34658;BME280;20865;43.312;27.152;2024-01-11T00:42:05;101712.30;;;3.38;33.74
34658;BME280;20865;43.312;27.152;2024-01-11T00:44:33;101706.12;;;3.37;33.67
34658;BME280;20865;43.312;27.152;2024-01-11T00:47:00;101705.38;;;3.43;33.59
34658;BME280;20865;43.312;27.152;2024-01-11T00:49:28;101701.42;;;3.43;33.45
34658;BME280;20865;43.312;27.152;2024-01-11T00:51:55;101703.58;;;3.42;33.40
34658;BME280;20865;43.312;27.152;2024-01-11T00:54:23;101704.49;;;3.42;33.45
34658;BME280;20865;43.312;27.152;2024-01-11T00:56:51;101701.34;;;3.40;33.48
34658;BME280;20865;43.312;27.152;2024-01-11T00:59:18;101699.58;;;3.39;33.51
34658;BME280;20865;43.312;27.152;2024-01-11T01:01:49;101703.12;;;3.41;33.61
34658;BME280;20865;43.312;27.152;2024-01-11T01:04:17;101696.52;;;3.41;33.47
34658;BME280;20865;43.312;27.152;2024-01-11T01:06:45;101689.91;;;3.41;33.56
34658;BME280;20865;43.312;27.152;2024-01-11T01:09:12;101690.34;;;3.40;33.56
34658;BME280;20865;43.312;27.152;2024-01-11T01:11:41;101687.72;;;3.42;33.49
34658;BME280;20865;43.312;27.152;2024-01-11T01:14:08;101688.94;;;3.36;33.58
34658;BME280;20865;43.312;27.152;2024-01-11T01:16:36;101686.53;;;3.27;33.79
34658;BME280;20865;43.312;27.152;2024-01-11T01:19:03;101681.62;;;3.24;34.12
34658;BME280;20865;43.312;27.152;2024-01-11T01:21:31;101680.73;;;3.23;34.01
34658;BME280;20865;43.312;27.152;2024-01-11T01:23:59;101679.41;;;3.23;34.03
34658;BME280;20865;43.312;27.152;2024-01-11T01:26:26;101671.90;;;3.21;33.98
34658;BME280;20865;43.312;27.152;2024-01-11T01:28:54;101667.00;;;3.19;33.97
34658;BME280;20865;43.312;27.152;2024-01-11T01:31:22;101661.64;;;3.16;34.00
34658;BME280;20865;43.312;27.152;2024-01-11T01:33:49;101658.58;;;3.17;33.92
34658;BME280;20865;43.312;27.152;2024-01-11T01:36:17;101662.46;;;3.14;33.93
34658;BME280;20865;43.312;27.152;2024-01-11T01:38:45;101658.94;;;3.13;34.01
34658;BME280;20865;43.312;27.152;2024-01-11T01:41:13;101646.53;;;3.09;34.11
34658;BME280;20865;43.312;27.152;2024-01-11T01:43:40;101645.26;;;3.10;34.06
34658;BME280;20865;43.312;27.152;2024-01-11T01:46:08;101646.96;;;3.08;34.20
34658;BME280;20865;43.312;27.152;2024-01-11T01:48:36;101642.42;;;3.03;34.32
34658;BME280;20865;43.312;27.152;2024-01-11T01:51:04;101637.48;;;2.98;34.38
34658;BME280;20865;43.312;27.152;2024-01-11T01:53:33;101628.25;;;2.98;34.31
34658;BME280;20865;43.312;27.152;2024-01-11T01:56:01;101624.73;;;2.99;34.31
34658;BME280;20865;43.312;27.152;2024-01-11T01:58:29;101620.27;;;2.96;34.27
34658;BME280;20865;43.312;27.152;2024-01-11T02:00:57;101626.47;;;2.97;34.26
34658;BME280;20865;43.312;27.152;2024-01-11T02:03:27;101622.08;;;2.97;34.21
34658;BME280;20865;43.312;27.152;2024-01-11T02:05:55;101626.49;;;2.98;34.16
34658;BME280;20865;43.312;27.152;2024-01-11T02:08:23;101615.93;;;2.98;34.23
34658;BME280;20865;43.312;27.152;2024-01-11T02:10:53;101611.95;;;2.97;34.18
34658;BME280;20865;43.312;27.152;2024-01-11T02:13:20;101611.09;;;2.99;34.14
34658;BME280;20865;43.312;27.152;2024-01-11T02:15:48;101607.57;;;2.99;34.07
34658;BME280;20865;43.312;27.152;2024-01-11T02:18:15;101605.75;;;2.96;34.12
34658;BME280;20865;43.312;27.152;2024-01-11T02:20:43;101599.58;;;2.96;34.25
34658;BME280;20865;43.312;27.152;2024-01-11T02:23:22;101602.22;;;2.96;34.18
34658;BME280;20865;43.312;27.152;2024-01-11T02:25:51;101606.18;;;2.96;34.16
34658;BME280;20865;43.312;27.152;2024-01-11T02:28:19;101601.32;;;2.94;34.04
34658;BME280;20865;43.312;27.152;2024-01-11T02:30:46;101599.49;;;2.91;34.11
34658;BME280;20865;43.312;27.152;2024-01-11T02:33:14;101598.16;;;2.90;33.97
34658;BME280;20865;43.312;27.152;2024-01-11T02:35:43;101590.16;;;2.86;34.06
34658;BME280;20865;43.312;27.152;2024-01-11T02:38:11;101591.05;;;2.87;34.07
34658;BME280;20865;43.312;27.152;2024-01-11T02:40:39;101591.43;;;2.85;34.11
34658;BME280;20865;43.312;27.152;2024-01-11T02:43:10;101590.09;;;2.83;34.24
34658;BME280;20865;43.312;27.152;2024-01-11T02:45:38;101586.58;;;2.84;34.34
34658;BME280;20865;43.312;27.152;2024-01-11T02:48:06;101576.98;;;2.88;34.33
34658;BME280;20865;43.312;27.152;2024-01-11T02:50:33;101569.88;;;2.85;34.33
34658;BME280;20865;43.312;27.152;2024-01-11T02:53:01;101573.08;;;2.90;34.34
34658;BME280;20865;43.312;27.152;2024-01-11T02:55:29;101573.91;;;2.89;34.40
34658;BME280;20865;43.312;27.152;2024-01-11T02:57:56;101575.34;;;2.93;34.36
34658;BME280;20865;43.312;27.152;2024-01-11T03:00:24;101572.20;;;2.91;34.46
34658;BME280;20865;43.312;27.152;2024-01-11T03:02:51;101557.25;;;2.91;34.44
34658;BME280;20865;43.312;27.152;2024-01-11T03:05:19;101555.05;;;2.91;34.41
34658;BME280;20865;43.312;27.152;2024-01-11T03:07:46;101558.48;;;2.86;34.41
34658;BME280;20865;43.312;27.152;2024-01-11T03:10:14;101554.02;;;2.84;34.51
34658;BME280;20865;43.312;27.152;2024-01-11T03:12:43;101556.23;;;2.84;34.33
34658;BME280;20865;43.312;27.152;2024-01-11T03:15:10;101546.10;;;2.84;34.33
34658;BME280;20865;43.312;27.152;2024-01-11T03:17:38;101551.38;;;2.84;34.45
34658;BME280;20865;43.312;27.152;2024-01-11T03:20:06;101553.22;;;2.88;34.39
34658;BME280;20865;43.312;27.152;2024-01-11T03:22:34;101549.77;;;2.91;34.45
34658;BME280;20865;43.312;27.152;2024-01-11T03:25:02;101532.10;;;2.88;34.19
34658;BME280;20865;43.312;27.152;2024-01-11T03:27:29;101543.62;;;2.92;34.34
34658;BME280;20865;43.312;27.152;2024-01-11T03:29:57;101538.27;;;2.89;34.45
34658;BME280;20865;43.312;27.152;2024-01-11T03:32:24;101539.52;;;2.85;34.53
34658;BME280;20865;43.312;27.152;2024-01-11T03:34:52;101537.80;;;2.86;34.60
34658;BME280;20865;43.312;27.152;2024-01-11T03:37:19;101532.52;;;2.86;34.65
34658;BME280;20865;43.312;27.152;2024-01-11T03:39:47;101525.92;;;2.86;34.61
34658;BME280;20865;43.312;27.152;2024-01-11T03:42:15;101529.45;;;2.86;34.59
34658;BME280;20865;43.312;27.152;2024-01-11T03:44:43;101519.70;;;2.84;34.55
34658;BME280;20865;43.312;27.152;2024-01-11T03:47:11;101516.25;;;2.86;34.45
34658;BME280;20865;43.312;27.152;2024-01-11T03:49:39;101515.77;;;2.85;34.42
34658;BME280;20865;43.312;27.152;2024-01-11T03:52:06;101515.77;;;2.85;34.65
34658;BME280;20865;43.312;27.152;2024-01-11T03:54:34;101518.52;;;2.90;34.73
34658;BME280;20865;43.312;27.152;2024-01-11T03:57:02;101514.51;;;2.89;34.74
34658;BME280;20865;43.312;27.152;2024-01-11T03:59:30;101515.00;;;2.90;34.67
34658;BME280;20865;43.312;27.152;2024-01-11T04:01:58;101502.16;;;2.86;34.87
34658;BME280;20865;43.312;27.152;2024-01-11T04:04:26;101500.80;;;2.84;34.91
34658;BME280;20865;43.312;27.152;2024-01-11T04:06:54;101498.16;;;2.84;34.93
34658;BME280;20865;43.312;27.152;2024-01-11T04:09:21;101501.61;;;2.82;34.87
34658;BME280;20865;43.312;27.152;2024-01-11T04:11:49;101505.19;;;2.84;35.06
34658;BME280;20865;43.312;27.152;2024-01-11T04:14:16;101496.33;;;2.82;35.04
34658;BME280;20865;43.312;27.152;2024-01-11T04:16:44;101497.25;;;2.82;35.04
34658;BME280;20865;43.312;27.152;2024-01-11T04:19:12;101491.53;;;2.83;35.04
34658;BME280;20865;43.312;27.152;2024-01-11T04:21:39;101486.64;;;2.81;35.04
34658;BME280;20865;43.312;27.152;2024-01-11T04:24:07;101479.61;;;2.81;35.20
34658;BME280;20865;43.312;27.152;2024-01-11T04:26:35;101485.12;;;2.72;35.23
34658;BME280;20865;43.312;27.152;2024-01-11T04:29:02;101486.20;;;2.81;35.11
34658;BME280;20865;43.312;27.152;2024-01-11T04:31:30;101480.47;;;2.80;35.28
34658;BME280;20865;43.312;27.152;2024-01-11T04:33:57;101487.87;;;2.76;35.18
34658;BME280;20865;43.312;27.152;2024-01-11T04:36:25;101487.52;;;2.81;35.22
34658;BME280;20865;43.312;27.152;2024-01-11T04:38:52;101486.64;;;2.81;35.21
34658;BME280;20865;43.312;27.152;2024-01-11T04:41:20;101491.97;;;2.82;35.05
34658;BME280;20865;43.312;27.152;2024-01-11T04:43:49;101489.50;;;2.70;35.35
34658;BME280;20865;43.312;27.152;2024-01-11T04:46:23;101485.12;;;2.72;35.28
34658;BME280;20865;43.312;27.152;2024-01-11T04:48:50;101492.20;;;2.73;35.32
34658;BME280;20865;43.312;27.152;2024-01-11T04:51:20;101488.26;;;2.74;35.29
34658;BME280;20865;43.312;27.152;2024-01-11T04:53:47;101488.04;;;2.85;35.26
34658;BME280;20865;43.312;27.152;2024-01-11T04:56:16;101491.63;;;2.89;35.26
34658;BME280;20865;43.312;27.152;2024-01-11T04:58:45;101493.00;;;2.91;35.20
34658;BME280;20865;43.312;27.152;2024-01-11T05:01:13;101493.82;;;2.88;35.25
34658;BME280;20865;43.312;27.152;2024-01-11T05:03:42;101493.39;;;2.89;35.41
34658;BME280;20865;43.312;27.152;2024-01-11T05:06:20;101490.36;;;2.91;35.29
34658;BME280;20865;43.312;27.152;2024-01-11T05:08:49;101485.09;;;2.92;35.30
34658;BME280;20865;43.312;27.152;2024-01-11T05:11:24;101484.66;;;2.93;35.44
34658;BME280;20865;43.312;27.152;2024-01-11T05:13:52;101484.73;;;2.96;35.44
34658;BME280;20865;43.312;27.152;2024-01-11T05:16:22;101484.73;;;2.96;35.34
34658;BME280;20865;43.312;27.152;2024-01-11T05:18:51;101487.78;;;2.94;35.40
34658;BME280;20865;43.312;27.152;2024-01-11T05:21:19;101484.28;;;2.95;35.39
34658;BME280;20865;43.312;27.152;2024-01-11T05:23:47;101485.98;;;2.93;35.36
34658;BME280;20865;43.312;27.152;2024-01-11T05:26:16;101478.55;;;2.94;35.66
34658;BME280;20865;43.312;27.152;2024-01-11T05:28:44;101481.20;;;2.95;35.76
34658;BME280;20865;43.312;27.152;2024-01-11T05:31:14;101478.94;;;2.92;35.71
34658;BME280;20865;43.312;27.152;2024-01-11T05:33:42;101474.16;;;2.94;35.65
34658;BME280;20865;43.312;27.152;2024-01-11T05:36:10;101472.40;;;2.95;35.50
34658;BME280;20865;43.312;27.152;2024-01-11T05:38:39;101464.98;;;2.97;35.34
34658;BME280;20865;43.312;27.152;2024-01-11T05:41:07;101461.03;;;2.99;35.47
34658;BME280;20865;43.312;27.152;2024-01-11T05:43:35;101450.89;;;2.97;35.57
34658;BME280;20865;43.312;27.152;2024-01-11T05:46:03;101454.11;;;3.04;35.55
34658;BME280;20865;43.312;27.152;2024-01-11T05:48:31;101449.28;;;3.06;35.36
34658;BME280;20865;43.312;27.152;2024-01-11T05:50:59;101440.54;;;3.09;35.51
34658;BME280;20865;43.312;27.152;2024-01-11T05:53:26;101445.82;;;3.09;35.38
34658;BME280;20865;43.312;27.152;2024-01-11T05:55:54;101444.56;;;3.12;35.37
34658;BME280;20865;43.312;27.152;2024-01-11T05:58:22;101439.41;;;3.18;35.26
34658;BME280;20865;43.312;27.152;2024-01-11T06:00:50;101440.80;;;3.23;34.96
34658;BME280;20865;43.312;27.152;2024-01-11T06:03:18;101435.06;;;3.22;35.24
34658;BME280;20865;43.312;27.152;2024-01-11T06:05:46;101435.55;;;3.24;35.29
34658;BME280;20865;43.312;27.152;2024-01-11T06:08:13;101432.10;;;3.28;35.44
34658;BME280;20865;43.312;27.152;2024-01-11T06:10:41;101434.38;;;3.33;35.24
34658;BME280;20865;43.312;27.152;2024-01-11T06:13:08;101430.91;;;3.36;35.30
34658;BME280;20865;43.312;27.152;2024-01-11T06:15:36;101438.02;;;3.40;35.21
34658;BME280;20865;43.312;27.152;2024-01-11T06:18:04;101432.35;;;3.44;35.33
34658;BME280;20865;43.312;27.152;2024-01-11T06:20:31;101428.00;;;3.46;35.40
34658;BME280;20865;43.312;27.152;2024-01-11T06:22:59;101424.03;;;3.46;35.21
34658;BME280;20865;43.312;27.152;2024-01-11T06:25:26;101422.77;;;3.49;35.16
34658;BME280;20865;43.312;27.152;2024-01-11T06:27:54;101422.72;;;3.47;35.11
34658;BME280;20865;43.312;27.152;2024-01-11T06:30:22;101424.97;;;3.49;35.10
34658;BME280;20865;43.312;27.152;2024-01-11T06:32:49;101420.64;;;3.54;35.17
34658;BME280;20865;43.312;27.152;2024-01-11T06:35:17;101429.16;;;3.63;35.09
34658;BME280;20865;43.312;27.152;2024-01-11T06:37:44;101427.08;;;3.70;35.03
34658;BME280;20865;43.312;27.152;2024-01-11T06:40:12;101427.20;;;3.79;34.98
34658;BME280;20865;43.312;27.152;2024-01-11T06:42:39;101423.87;;;3.93;35.16
34658;BME280;20865;43.312;27.152;2024-01-11T06:45:08;101420.80;;;4.24;35.06
34658;BME280;20865;43.312;27.152;2024-01-11T06:47:36;101416.07;;;4.69;34.49
34658;BME280;20865;43.312;27.152;2024-01-11T06:50:04;101416.49;;;5.07;33.58
34658;BME280;20865;43.312;27.152;2024-01-11T06:52:32;101412.84;;;5.42;33.01
34658;BME280;20865;43.312;27.152;2024-01-11T06:54:59;101414.39;;;5.71;32.48
34658;BME280;20865;43.312;27.152;2024-01-11T06:57:27;101412.25;;;5.82;31.77
34658;BME280;20865;43.312;27.152;2024-01-11T06:59:55;101414.00;;;5.78;31.56
34658;BME280;20865;43.312;27.152;2024-01-11T07:02:22;101411.72;;;5.67;31.59
34658;BME280;20865;43.312;27.152;2024-01-11T07:04:50;101411.22;;;5.60;31.72
34658;BME280;20865;43.312;27.152;2024-01-11T07:07:17;101412.10;;;5.60;31.99
34658;BME280;20865;43.312;27.152;2024-01-11T07:09:45;101410.41;;;5.71;31.96
34658;BME280;20865;43.312;27.152;2024-01-11T07:12:12;101406.92;;;5.79;31.99
34658;BME280;20865;43.312;27.152;2024-01-11T07:14:40;101406.26;;;6.06;32.01
34658;BME280;20865;43.312;27.152;2024-01-11T07:17:08;101405.12;;;6.39;31.75
34658;BME280;20865;43.312;27.152;2024-01-11T07:19:35;101399.50;;;6.74;31.44
34658;BME280;20865;43.312;27.152;2024-01-11T07:22:03;101397.34;;;7.04;31.10
34658;BME280;20865;43.312;27.152;2024-01-11T07:24:31;101401.81;;;7.23;30.61
34658;BME280;20865;43.312;27.152;2024-01-11T07:27:00;101399.17;;;7.43;30.36
34658;BME280;20865;43.312;27.152;2024-01-11T07:29:27;101393.37;;;7.67;30.04
34658;BME280;20865;43.312;27.152;2024-01-11T07:31:55;101392.03;;;7.86;29.71
34658;BME280;20865;43.312;27.152;2024-01-11T07:34:22;101388.05;;;7.93;29.78
34658;BME280;20865;43.312;27.152;2024-01-11T07:36:51;101384.47;;;8.03;29.61
34658;BME280;20865;43.312;27.152;2024-01-11T07:39:19;101392.87;;;8.13;29.59
34658;BME280;20865;43.312;27.152;2024-01-11T07:41:49;101388.85;;;8.21;29.47
34658;BME280;20865;43.312;27.152;2024-01-11T07:44:16;101394.16;;;8.25;29.44
34658;BME280;20865;43.312;27.152;2024-01-11T07:46:44;101398.61;;;8.16;29.40
34658;BME280;20865;43.312;27.152;2024-01-11T07:49:12;101381.80;;;8.04;29.45
34658;BME280;20865;43.312;27.152;2024-01-11T07:51:39;101392.45;;;7.98;29.66
34658;BME280;20865;43.312;27.152;2024-01-11T07:54:07;101386.24;;;7.95;29.77
34658;BME280;20865;43.312;27.152;2024-01-11T07:56:34;101378.70;;;8.00;29.93
34658;BME280;20865;43.312;27.152;2024-01-11T07:59:02;101374.25;;;8.07;30.01
34658;BME280;20865;43.312;27.152;2024-01-11T08:01:30;101370.23;;;8.15;30.05
34658;BME280;20865;43.312;27.152;2024-01-11T08:04:00;101371.08;;;8.23;30.23
34658;BME280;20865;43.312;27.152;2024-01-11T08:06:29;101370.16;;;8.33;30.08
34658;BME280;20865;43.312;27.152;2024-01-11T08:08:57;101371.06;;;8.41;29.89
34658;BME280;20865;43.312;27.152;2024-01-11T08:11:24;101366.60;;;8.48;29.93
34658;BME280;20865;43.312;27.152;2024-01-11T08:13:52;101363.42;;;8.57;30.01
34658;BME280;20865;43.312;27.152;2024-01-11T08:16:21;101364.33;;;8.56;29.85
34658;BME280;20865;43.312;27.152;2024-01-11T08:18:49;101353.73;;;8.47;30.02
34658;BME280;20865;43.312;27.152;2024-01-11T08:21:17;101351.05;;;8.49;30.32
34658;BME280;20865;43.312;27.152;2024-01-11T08:23:45;101348.44;;;8.38;29.78
34658;BME280;20865;43.312;27.152;2024-01-11T08:26:15;101348.84;;;8.44;29.64
34658;BME280;20865;43.312;27.152;2024-01-11T08:28:45;101343.09;;;8.40;30.26
34658;BME280;20865;43.312;27.152;2024-01-11T08:31:12;101338.20;;;8.42;30.33
34658;BME280;20865;43.312;27.152;2024-01-11T08:33:40;101332.46;;;8.38;30.36
34658;BME280;20865;43.312;27.152;2024-01-11T08:36:08;101335.52;;;8.44;30.60
34658;BME280;20865;43.312;27.152;2024-01-11T08:38:36;101337.75;;;8.43;30.61
34658;BME280;20865;43.312;27.152;2024-01-11T08:41:04;101330.66;;;8.40;30.72
34658;BME280;20865;43.312;27.152;2024-01-11T08:43:31;101333.33;;;8.37;30.31
34658;BME280;20865;43.312;27.152;2024-01-11T08:45:59;101327.55;;;8.42;30.72
34658;BME280;20865;43.312;27.152;2024-01-11T08:48:28;101320.38;;;8.56;30.64
34658;BME280;20865;43.312;27.152;2024-01-11T08:50:57;101320.33;;;8.66;30.56
34658;BME280;20865;43.312;27.152;2024-01-11T08:53:25;101313.71;;;8.56;30.91
34658;BME280;20865;43.312;27.152;2024-01-11T08:55:52;101300.80;;;8.64;30.84
34658;BME280;20865;43.312;27.152;2024-01-11T08:58:20;101293.23;;;8.65;31.55
34658;BME280;20865;43.312;27.152;2024-01-11T09:00:48;101288.63;;;8.88;31.48
34658;BME280;20865;43.312;27.152;2024-01-11T09:03:15;101283.84;;;8.77;30.92
34658;BME280;20865;43.312;27.152;2024-01-11T09:05:43;101287.87;;;8.71;30.93
34658;BME280;20865;43.312;27.152;2024-01-11T09:08:10;101268.17;;;8.92;30.45
34658;BME280;20865;43.312;27.152;2024-01-11T09:10:38;101262.30;;;9.03;30.08
34658;BME280;20865;43.312;27.152;2024-01-11T09:13:07;101255.22;;;9.03;29.77
34658;BME280;20865;43.312;27.152;2024-01-11T09:15:35;101257.83;;;9.08;29.58
34658;BME280;20865;43.312;27.152;2024-01-11T09:18:04;101246.72;;;9.10;30.14
34658;BME280;20865;43.312;27.152;2024-01-11T09:20:32;101239.48;;;9.20;29.78
34658;BME280;20865;43.312;27.152;2024-01-11T09:23:00;101236.80;;;9.23;30.30
34658;BME280;20865;43.312;27.152;2024-01-11T09:25:34;101230.24;;;9.14;30.18
34658;BME280;20865;43.312;27.152;2024-01-11T09:27:58;101224.05;;;9.09;29.26
34658;BME280;20865;43.312;27.152;2024-01-11T09:30:26;101215.41;;;9.29;28.81
34658;BME280;20865;43.312;27.152;2024-01-11T09:32:53;101215.33;;;9.38;28.89
34658;BME280;20865;43.312;27.152;2024-01-11T09:35:24;101205.41;;;9.48;28.78
34658;BME280;20865;43.312;27.152;2024-01-11T09:37:52;101204.45;;;9.57;28.29
34658;BME280;20865;43.312;27.152;2024-01-11T09:40:19;101202.03;;;9.73;28.30
34658;BME280;20865;43.312;27.152;2024-01-11T09:42:47;101192.14;;;9.79;28.34
34658;BME280;20865;43.312;27.152;2024-01-11T09:45:16;101188.45;;;9.90;28.02
34658;BME280;20865;43.312;27.152;2024-01-11T09:47:45;101173.42;;;9.84;26.73
34658;BME280;20865;43.312;27.152;2024-01-11T09:50:14;101170.22;;;9.89;26.82
34658;BME280;20865;43.312;27.152;2024-01-11T09:52:49;101162.21;;;9.91;26.56
34658;BME280;20865;43.312;27.152;2024-01-11T09:55:18;101162.02;;;10.05;26.54
34658;BME280;20865;43.312;27.152;2024-01-11T09:57:47;101152.14;;;10.11;26.17
34658;BME280;20865;43.312;27.152;2024-01-11T10:00:17;101145.84;;;10.14;26.58
34658;BME280;20865;43.312;27.152;2024-01-11T10:02:46;101142.12;;;10.29;26.39
34658;BME280;20865;43.312;27.152;2024-01-11T10:05:13;101142.95;;;10.31;26.64
34658;BME280;20865;43.312;27.152;2024-01-11T10:07:41;101132.55;;;10.41;26.61
34658;BME280;20865;43.312;27.152;2024-01-11T10:10:09;101128.50;;;10.44;25.52
34658;BME280;20865;43.312;27.152;2024-01-11T10:12:37;101122.28;;;10.43;26.63
34658;BME280;20865;43.312;27.152;2024-01-11T10:15:06;101109.62;;;10.55;26.36
34658;BME280;20865;43.312;27.152;2024-01-11T10:17:43;101107.67;;;10.64;26.04
34658;BME280;20865;43.312;27.152;2024-01-11T10:20:13;101104.69;;;10.56;26.40
34658;BME280;20865;43.312;27.152;2024-01-11T10:22:42;101104.36;;;10.50;26.96
34658;BME280;20865;43.312;27.152;2024-01-11T10:25:14;101106.44;;;10.58;27.04
34658;BME280;20865;43.312;27.152;2024-01-11T10:27:43;101102.57;;;10.51;26.46
34658;BME280;20865;43.312;27.152;2024-01-11T10:30:15;101093.39;;;10.67;26.22
34658;BME280;20865;43.312;27.152;2024-01-11T10:32:46;101086.56;;;10.75;26.62
34658;BME280;20865;43.312;27.152;2024-01-11T10:35:15;101084.71;;;10.78;27.75
34658;BME280;20865;43.312;27.152;2024-01-11T10:37:44;101084.92;;;10.90;27.09
34658;BME280;20865;43.312;27.152;2024-01-11T10:40:13;101078.23;;;10.91;27.46
34658;BME280;20865;43.312;27.152;2024-01-11T10:42:43;101064.61;;;11.04;27.15
34658;BME280;20865;43.312;27.152;2024-01-11T10:47:47;101054.38;;;11.02;27.09
34658;BME280;20865;43.312;27.152;2024-01-11T10:50:14;101053.44;;;11.06;26.97
34658;BME280;20865;43.312;27.152;2024-01-11T10:52:50;101041.98;;;10.99;27.48
34658;BME280;20865;43.312;27.152;2024-01-11T10:55:15;101040.44;;;11.08;27.52
34658;BME280;20865;43.312;27.152;2024-01-11T10:57:44;101033.39;;;11.04;26.87
34658;BME280;20865;43.312;27.152;2024-01-11T11:00:13;101028.67;;;10.96;27.31
34658;BME280;20865;43.312;27.152;2024-01-11T11:02:43;101016.72;;;10.69;27.36
34658;BME280;20865;43.312;27.152;2024-01-11T11:05:14;101013.48;;;10.52;27.55
34658;BME280;20865;43.312;27.152;2024-01-11T11:07:43;101003.61;;;10.31;27.94
34658;BME280;20865;43.312;27.152;2024-01-11T11:10:12;101004.14;;;10.24;28.41
34658;BME280;20865;43.312;27.152;2024-01-11T11:12:41;100995.34;;;10.19;28.62
34658;BME280;20865;43.312;27.152;2024-01-11T11:15:10;100992.58;;;10.24;28.90
34658;BME280;20865;43.312;27.152;2024-01-11T11:17:39;100981.00;;;10.27;28.14
34658;BME280;20865;43.312;27.152;2024-01-11T11:20:08;100976.34;;;10.38;28.63
34658;BME280;20865;43.312;27.152;2024-01-11T11:22:40;100970.89;;;10.44;28.27
34658;BME280;20865;43.312;27.152;2024-01-11T11:25:09;100966.89;;;10.42;28.20
34658;BME280;20865;43.312;27.152;2024-01-11T11:27:37;100968.79;;;10.37;28.37
34658;BME280;20865;43.312;27.152;2024-01-11T11:30:06;100965.76;;;10.32;27.90
34658;BME280;20865;43.312;27.152;2024-01-11T11:32:38;100960.09;;;10.26;28.06
34658;BME280;20865;43.312;27.152;2024-01-11T11:35:07;100948.03;;;10.29;28.86
34658;BME280;20865;43.312;27.152;2024-01-11T11:37:37;100947.02;;;10.35;28.70
34658;BME280;20865;43.312;27.152;2024-01-11T11:40:09;100942.90;;;10.41;28.67
34658;BME280;20865;43.312;27.152;2024-01-11T11:42:37;100931.06;;;10.54;28.44
34658;BME280;20865;43.312;27.152;2024-01-11T11:45:08;100930.49;;;10.61;28.92
34658;BME280;20865;43.312;27.152;2024-01-11T11:47:38;100923.12;;;10.72;28.43
34658;BME280;20865;43.312;27.152;2024-01-11T11:50:10;100918.94;;;10.81;28.26
34658;BME280;20865;43.312;27.152;2024-01-11T11:52:40;100920.16;;;10.86;28.06
34658;BME280;20865;43.312;27.152;2024-01-11T11:55:12;100913.66;;;10.97;27.68
34658;BME280;20865;43.312;27.152;2024-01-11T11:57:42;100906.84;;;11.04;27.62
34658;BME280;20865;43.312;27.152;2024-01-11T12:00:11;100905.45;;;11.07;27.86
34658;BME280;20865;43.312;27.152;2024-01-11T12:02:39;100904.39;;;11.14;27.55
34658;BME280;20865;43.312;27.152;2024-01-11T12:05:09;100897.59;;;11.18;27.23
34658;BME280;20865;43.312;27.152;2024-01-11T12:07:36;100897.50;;;11.23;27.55
34658;BME280;20865;43.312;27.152;2024-01-11T12:10:05;100901.05;;;11.24;27.09
34658;BME280;20865;43.312;27.152;2024-01-11T12:12:35;100892.38;;;11.32;27.17
34658;BME280;20865;43.312;27.152;2024-01-11T12:15:05;100890.63;;;11.31;27.41
34658;BME280;20865;43.312;27.152;2024-01-11T12:17:32;100883.88;;;11.34;26.63
34658;BME280;20865;43.312;27.152;2024-01-11T12:20:00;100873.53;;;11.36;27.39
34658;BME280;20865;43.312;27.152;2024-01-11T12:22:28;100868.63;;;11.37;26.79
34658;BME280;20865;43.312;27.152;2024-01-11T12:24:56;100867.22;;;11.40;27.41
34658;BME280;20865;43.312;27.152;2024-01-11T12:27:24;100870.31;;;11.41;27.13
34658;BME280;20865;43.312;27.152;2024-01-11T12:29:52;100865.37;;;11.42;26.60
34658;BME280;20865;43.312;27.152;2024-01-11T12:32:19;100857.66;;;11.30;26.97
34658;BME280;20865;43.312;27.152;2024-01-11T12:34:48;100847.58;;;11.22;26.71
34658;BME280;20865;43.312;27.152;2024-01-11T12:37:16;100850.23;;;11.24;27.17
34658;BME280;20865;43.312;27.152;2024-01-11T12:39:43;100851.52;;;11.25;27.47
34658;BME280;20865;43.312;27.152;2024-01-11T12:42:11;100850.25;;;11.22;27.11
34658;BME280;20865;43.312;27.152;2024-01-11T12:44:40;100842.23;;;11.22;27.50
34658;BME280;20865;43.312;27.152;2024-01-11T12:47:08;100841.41;;;11.20;27.25
34658;BME280;20865;43.312;27.152;2024-01-11T12:49:36;100838.80;;;11.17;27.38
34658;BME280;20865;43.312;27.152;2024-01-11T12:52:03;100838.80;;;11.17;27.38
34658;BME280;20865;43.312;27.152;2024-01-11T12:54:32;100839.81;;;11.11;27.58